Time;durP1;ratioP1;P1;durP2;ratioP2;P2;SDS_P1;SDS_P2;PMS_P1;PMS_P2;Temp;Humidity;BMP_temperature;BMP_pressure;BME280_temperature;BME280_humidity;BME280_pressure;Samples;Min_cycle;Max_cycle;Signal;HPM_P1;HPM_P2
2023/05/22 00:00:55;;;;;;;5.43;3.97;;;22.90;66.30;;;;;;6339351;22;19999;-81
2023/05/22 00:03:23;;;;;;;7.35;4.18;;;22.90;66.60;;;;;;6338858;22;20003;-81
2023/05/22 00:05:49;;;;;;;6.18;4.35;;;22.90;67.00;;;;;;6312065;22;20002;-81
2023/05/22 00:08:15;;;;;;;5.93;3.97;;;22.90;67.20;;;;;;6339257;22;20003;-80
2023/05/22 00:10:41;;;;;;;7.03;4.78;;;22.90;66.70;;;;;;6312073;22;20425;-81
2023/05/22 00:13:06;;;;;;;4.85;4.00;;;22.90;66.70;;;;;;6311693;22;20043;-80
2023/05/22 00:15:32;;;;;;;6.85;4.32;;;22.90;66.70;;;;;;6339025;22;20068;-80
2023/05/22 00:17:58;;;;;;;9.95;4.43;;;22.90;66.70;;;;;;6338493;22;20078;-79
2023/05/22 00:20:25;;;;;;;5.70;4.45;;;22.80;66.40;;;;;;6339248;22;19995;-79
2023/05/22 00:22:51;;;;;;;4.60;3.65;;;22.80;66.40;;;;;;6339014;22;20005;-85
2023/05/22 00:25:18;;;;;;;4.45;3.28;;;22.80;66.10;;;;;;6339072;22;20080;-84
2023/05/22 00:27:46;;;;;;;5.18;4.05;;;22.80;65.80;;;;;;6339157;22;20433;-86
2023/05/22 00:30:12;;;;;;;7.78;4.07;;;22.80;66.50;;;;;;6339585;22;19999;-85
2023/05/22 00:32:38;;;;;;;6.22;3.97;;;22.70;66.10;;;;;;6338910;22;20003;-85
2023/05/22 00:35:04;;;;;;;4.43;3.47;;;22.80;66.70;;;;;;6339507;22;20048;-85
2023/05/22 00:37:30;;;;;;;5.25;3.55;;;22.80;66.70;;;;;;6339429;22;20006;-85
2023/05/22 00:39:55;;;;;;;4.43;3.75;;;22.70;66.10;;;;;;6339132;22;20002;-85
2023/05/22 00:42:22;;;;;;;4.07;3.67;;;22.80;65.80;;;;;;6339042;22;20002;-86
2023/05/22 00:44:47;;;;;;;6.47;3.60;;;22.80;65.80;;;;;;6338581;22;20003;-85
2023/05/22 00:47:13;;;;;;;6.55;3.60;;;22.80;65.90;;;;;;6338470;22;20052;-86
2023/05/22 00:49:40;;;;;;;5.70;3.35;;;22.80;65.70;;;;;;6339205;22;20342;-85
2023/05/22 00:52:07;;;;;;;6.05;3.88;;;22.80;65.70;;;;;;6338243;22;20347;-84
2023/05/22 00:54:32;;;;;;;4.72;3.40;;;22.80;65.80;;;;;;6338555;22;20003;-85
2023/05/22 00:56:59;;;;;;;4.78;3.72;;;22.70;65.40;;;;;;6338041;22;20026;-83
2023/05/22 00:59:25;;;;;;;6.20;3.80;;;22.70;65.30;;;;;;6338611;22;19995;-83
2023/05/22 01:01:50;;;;;;;5.38;3.97;;;22.70;65.20;;;;;;6338879;22;20001;-83
2023/05/22 01:04:17;;;;;;;4.35;3.55;;;22.70;65.50;;;;;;6338508;22;20002;-86
2023/05/22 01:06:46;;;;;;;5.40;4.30;;;22.70;65.70;;;;;;6338700;22;20044;-85
2023/05/22 01:09:13;;;;;;;6.13;3.60;;;22.70;65.90;;;;;;6339063;22;20029;-85
2023/05/22 01:12:00;;;;;;;4.07;3.58;;;22.70;65.90;;;;;;6339311;22;20010;-85
2023/05/22 01:14:35;;;;;;;5.15;3.00;;;22.70;65.60;;;;;;6339803;22;20034;-85
2023/05/22 01:17:24;;;;;;;5.30;3.65;;;22.70;65.60;;;;;;6339458;22;20110;-88
2023/05/22 01:20:20;;;;;;;4.68;3.28;;;22.70;65.80;;;;;;6339303;22;19995;-87
2023/05/22 01:23:23;;;;;;;4.55;3.67;;;22.70;66.10;;;;;;6338877;22;19995;-87
2023/05/22 01:26:12;;;;;;;6.03;3.70;;;22.70;65.90;;;;;;6338836;22;19998;-86
2023/05/22 01:28:55;;;;;;;4.63;3.53;;;22.70;65.90;;;;;;6338408;22;20035;-85
2023/05/22 01:31:25;;;;;;;6.28;3.80;;;22.70;66.10;;;;;;6339033;22;20502;-87
2023/05/22 01:33:54;;;;;;;5.22;3.40;;;22.60;65.70;;;;;;6338316;22;20010;-87
2023/05/22 01:36:21;;;;;;;7.18;3.80;;;22.60;65.60;;;;;;6338564;22;20022;-88
2023/05/22 01:38:48;;;;;;;5.30;3.08;;;22.60;65.70;;;;;;6338050;22;20029;-87
2023/05/22 01:41:15;;;;;;;4.50;3.42;;;22.60;65.60;;;;;;6338778;22;20002;-87
2023/05/22 01:43:41;;;;;;;5.07;3.90;;;22.60;65.60;;;;;;6338416;22;20003;-87
2023/05/22 01:46:07;;;;;;;3.47;3.17;;;22.50;65.70;;;;;;6338936;22;20429;-87
2023/05/22 01:48:34;;;;;;;4.78;3.40;;;22.50;65.60;;;;;;6338392;22;19999;-87
2023/05/22 01:51:18;;;;;;;4.13;3.58;;;22.50;65.80;;;;;;6338745;22;20007;-87
2023/05/22 01:54:11;;;;;;;17.25;4.38;;;22.50;66.50;;;;;;6337948;22;20002;-85
2023/05/22 01:57:02;;;;;;;4.78;3.60;;;22.50;66.40;;;;;;6338748;22;19998;-86
2023/05/22 01:59:33;;;;;;;8.38;3.35;;;22.50;66.10;;;;;;6338116;22;20006;-87
2023/05/22 02:02:04;;;;;;;5.97;3.60;;;22.50;66.30;;;;;;6311050;22;20005;-86
2023/05/22 02:04:32;;;;;;;7.28;3.70;;;22.40;66.80;;;;;;6338619;22;19999;-86
2023/05/22 02:07:00;;;;;;;6.05;3.63;;;22.50;67.10;;;;;;6339301;22;20413;-86
2023/05/22 02:09:29;;;;;;;4.15;3.20;;;22.50;67.00;;;;;;6339687;22;20117;-86
2023/05/22 02:11:57;;;;;;;5.55;3.42;;;22.40;66.60;;;;;;6340457;22;20424;-86
2023/05/22 02:14:24;;;;;;;4.13;3.00;;;22.50;66.40;;;;;;6340034;22;20006;-86
2023/05/22 02:16:50;;;;;;;4.63;3.10;;;22.50;66.40;;;;;;6340167;22;20006;-86
2023/05/22 02:19:15;;;;;;;4.55;3.75;;;22.50;66.20;;;;;;6339449;22;20333;-87
2023/05/22 02:21:41;;;;;;;3.80;3.30;;;22.40;66.00;;;;;;6340003;22;20378;-86
2023/05/22 02:24:07;;;;;;;4.07;3.38;;;22.40;66.20;;;;;;6341626;22;20460;-87
2023/05/22 02:26:32;;;;;;;6.35;3.78;;;22.40;66.40;;;;;;6341891;22;20028;-86
2023/05/22 02:28:58;;;;;;;5.40;3.80;;;22.40;66.50;;;;;;6313701;22;20105;-86
2023/05/22 02:31:23;;;;;;;4.03;3.60;;;22.30;66.90;;;;;;6355733;22;20002;-86
2023/05/22 02:33:49;;;;;;;5.05;3.88;;;22.30;66.30;;;;;;6355950;22;20014;-85
2023/05/22 02:36:15;;;;;;;4.88;3.58;;;22.30;65.90;;;;;;6356796;22;19995;-85
2023/05/22 02:38:41;;;;;;;7.60;3.33;;;22.30;65.90;;;;;;6345873;22;20070;-86
2023/05/22 02:41:07;;;;;;;6.65;3.33;;;22.30;66.50;;;;;;6311760;22;20006;-86
2023/05/22 02:43:32;;;;;;;4.63;3.30;;;22.40;66.80;;;;;;6339947;22;20003;-86
2023/05/22 02:45:58;;;;;;;5.40;3.30;;;22.30;67.10;;;;;;6340047;22;20003;-87
2023/05/22 02:48:23;;;;;;;8.45;3.80;;;22.30;67.20;;;;;;6312301;22;20002;-86
2023/05/22 02:50:49;;;;;;;6.28;3.60;;;22.30;66.90;;;;;;6339282;22;20003;-86
2023/05/22 02:53:15;;;;;;;6.07;3.75;;;22.30;66.90;;;;;;6347025;22;20290;-87
2023/05/22 02:55:42;;;;;;;4.28;3.35;;;22.30;66.80;;;;;;6355491;22;20492;-86
2023/05/22 02:58:10;;;;;;;5.15;3.75;;;22.30;66.70;;;;;;6353793;22;19994;-87
2023/05/22 03:00:36;;;;;;;4.43;3.50;;;22.30;66.80;;;;;;6351153;22;19999;-87
2023/05/22 03:03:03;;;;;;;8.73;3.70;;;22.20;66.80;;;;;;6320066;22;20009;-88
2023/05/22 03:05:30;;;;;;;5.63;3.63;;;22.20;66.70;;;;;;6346831;22;20003;-87
2023/05/22 03:07:56;;;;;;;5.93;3.33;;;22.20;66.40;;;;;;6344190;22;19995;-87
2023/05/22 03:10:22;;;;;;;5.15;3.28;;;22.10;66.50;;;;;;6312130;22;20006;-87
2023/05/22 03:12:50;;;;;;;3.72;3.30;;;22.10;66.50;;;;;;6340450;22;20052;-87
2023/05/22 03:15:16;;;;;;;4.03;2.95;;;22.00;66.50;;;;;;6339819;22;20003;-87
2023/05/22 03:17:42;;;;;;;4.75;3.42;;;22.00;66.60;;;;;;6339983;22;19999;-86
2023/05/22 03:20:08;;;;;;;4.55;3.10;;;22.00;67.00;;;;;;6339164;22;20090;-81
2023/05/22 03:22:34;;;;;;;4.10;3.30;;;22.00;67.40;;;;;;6339312;22;20025;-81
2023/05/22 03:25:00;;;;;;;5.28;3.25;;;22.00;67.10;;;;;;6339161;22;20002;-80
2023/05/22 03:27:26;;;;;;;6.30;3.08;;;21.90;67.00;;;;;;6338765;22;20022;-80
2023/05/22 03:29:52;;;;;;;7.15;3.67;;;21.90;67.20;;;;;;6339017;22;20003;-79
2023/05/22 03:32:18;;;;;;;3.63;3.03;;;21.90;67.40;;;;;;6339224;22;20071;-79
2023/05/22 03:34:43;;;;;;;3.78;3.38;;;21.90;67.40;;;;;;6339803;22;20003;-79
2023/05/22 03:37:09;;;;;;;5.88;3.33;;;21.80;67.10;;;;;;6338742;22;20006;-78
2023/05/22 03:39:35;;;;;;;6.10;3.92;;;21.80;67.00;;;;;;6338844;22;20006;-80
2023/05/22 03:42:01;;;;;;;4.80;3.65;;;21.80;67.10;;;;;;6339344;22;20002;-79
2023/05/22 03:44:26;;;;;;;6.70;3.33;;;21.70;67.30;;;;;;6339642;22;20002;-80
2023/05/22 03:46:52;;;;;;;3.80;3.40;;;21.70;67.50;;;;;;6339277;22;20290;-80
2023/05/22 03:49:18;;;;;;;4.50;3.63;;;21.70;67.80;;;;;;6338931;22;20003;-80
2023/05/22 03:51:44;;;;;;;5.38;3.90;;;21.70;67.80;;;;;;6339525;22;20003;-81
2023/05/22 03:54:09;;;;;;;3.72;3.20;;;21.70;67.80;;;;;;6339249;22;20428;-81
2023/05/22 03:56:35;;;;;;;4.07;3.17;;;21.70;68.20;;;;;;6339012;22;19994;-81
2023/05/22 03:59:00;;;;;;;3.45;3.00;;;21.70;68.20;;;;;;6339070;22;20021;-79
2023/05/22 04:01:26;;;;;;;5.25;3.70;;;21.70;68.30;;;;;;6338928;22;20335;-79
2023/05/22 04:03:52;;;;;;;4.05;3.30;;;21.70;68.20;;;;;;6338941;22;20007;-79
2023/05/22 04:06:20;;;;;;;3.97;3.10;;;21.60;68.30;;;;;;6339212;22;19999;-79
2023/05/22 04:08:47;;;;;;;5.75;3.20;;;21.60;68.30;;;;;;6338287;22;20003;-79
2023/05/22 04:11:17;;;;;;;3.72;3.17;;;21.60;68.50;;;;;;6338694;22;19999;-79
2023/05/22 04:13:43;;;;;;;3.67;3.33;;;21.60;68.70;;;;;;6311521;22;20294;-80
2023/05/22 04:16:09;;;;;;;5.22;3.67;;;21.60;68.80;;;;;;6338855;22;19995;-79
2023/05/22 04:18:35;;;;;;;4.05;3.33;;;21.60;69.00;;;;;;6310730;22;20006;-79
2023/05/22 04:21:01;;;;;;;7.70;3.38;;;21.60;69.20;;;;;;6337962;22;20026;-79
2023/05/22 04:23:27;;;;;;;6.32;3.13;;;21.60;69.30;;;;;;6338736;22;19999;-80
2023/05/22 04:25:53;;;;;;;4.60;3.50;;;21.50;69.10;;;;;;6339085;22;20005;-80
2023/05/22 04:28:21;;;;;;;3.40;3.10;;;21.50;69.40;;;;;;6338404;22;20494;-80
2023/05/22 04:30:47;;;;;;;6.30;3.22;;;21.50;69.70;;;;;;6338001;22;20007;-81
2023/05/22 04:33:13;;;;;;;5.38;3.53;;;21.60;70.00;;;;;;6310407;22;20390;-80
2023/05/22 04:35:39;;;;;;;6.20;3.72;;;21.50;70.10;;;;;;6339094;22;19995;-80
2023/05/22 04:38:05;;;;;;;6.80;3.58;;;21.60;70.40;;;;;;6338492;22;20069;-80
2023/05/22 04:40:32;;;;;;;5.43;3.58;;;21.60;70.70;;;;;;6338068;22;20005;-79
2023/05/22 04:43:02;;;;;;;5.55;3.75;;;21.60;70.50;;;;;;6338724;22;20005;-80
2023/05/22 04:45:28;;;;;;;6.60;3.78;;;21.60;70.70;;;;;;6339236;22;20412;-80
2023/05/22 04:47:54;;;;;;;7.97;3.92;;;21.60;71.00;;;;;;6337855;22;19999;-80
2023/05/22 04:50:21;;;;;;;6.13;3.42;;;21.60;70.80;;;;;;6338155;22;20022;-80
2023/05/22 04:52:47;;;;;;;7.88;3.95;;;21.60;70.70;;;;;;6338608;22;19999;-80
2023/05/22 04:55:13;;;;;;;5.78;3.40;;;21.60;71.40;;;;;;6337669;22;19998;-80
2023/05/22 04:57:39;;;;;;;5.72;2.72;;;21.60;70.40;;;;;;6338395;22;20005;-80
2023/05/22 05:00:06;;;;;;;3.60;2.70;;;21.60;70.40;;;;;;6309834;22;19999;-79
2023/05/22 05:02:32;;;;;;;4.07;3.20;;;21.60;70.40;;;;;;6338603;22;19998;-80
2023/05/22 05:04:58;;;;;;;4.22;3.10;;;21.60;70.30;;;;;;6310370;22;20432;-79
2023/05/22 05:07:23;;;;;;;3.78;3.05;;;21.60;70.20;;;;;;6338870;22;20061;-79
2023/05/22 05:09:50;;;;;;;6.78;4.47;;;21.60;70.10;;;;;;6309731;22;20007;-79
2023/05/22 05:12:15;;;;;;;5.03;3.45;;;21.60;70.00;;;;;;6338433;22;20291;-78
2023/05/22 05:14:41;;;;;;;4.82;3.22;;;21.60;70.40;;;;;;6338350;22;20055;-79
2023/05/22 05:17:07;;;;;;;5.22;3.25;;;21.60;70.20;;;;;;6338860;22;19999;-79
2023/05/22 05:19:33;;;;;;;7.85;3.47;;;21.60;70.00;;;;;;6336961;22;20057;-79
2023/05/22 05:21:59;;;;;;;5.65;3.60;;;21.60;70.20;;;;;;6338624;22;20049;-81
2023/05/22 05:24:25;;;;;;;4.68;3.50;;;21.50;70.00;;;;;;6338660;22;20413;-81
2023/05/22 05:26:51;;;;;;;3.58;3.08;;;21.50;70.20;;;;;;6310634;22;20010;-82
2023/05/22 05:29:17;;;;;;;4.82;3.20;;;21.50;70.20;;;;;;6337014;22;20022;-82
2023/05/22 05:31:42;;;;;;;4.80;3.40;;;21.50;70.40;;;;;;6336920;22;20329;-82
2023/05/22 05:34:08;;;;;;;4.70;3.40;;;21.50;70.40;;;;;;6337153;22;20006;-81
2023/05/22 05:36:34;;;;;;;5.40;3.17;;;21.50;70.70;;;;;;6336187;22;20372;-82
2023/05/22 05:39:00;;;;;;;7.28;3.97;;;21.50;70.40;;;;;;6336359;22;20080;-82
2023/05/22 05:41:26;;;;;;;4.90;3.70;;;21.50;70.60;;;;;;6337644;22;20413;-82
2023/05/22 05:43:51;;;;;;;6.43;4.15;;;21.50;70.50;;;;;;6339168;22;20003;-83
2023/05/22 05:46:18;;;;;;;5.80;3.55;;;21.60;70.50;;;;;;6340883;22;20026;-83
2023/05/22 05:48:44;;;;;;;5.35;3.53;;;21.60;70.50;;;;;;6338745;22;20479;-80
2023/05/22 05:51:10;;;;;;;4.10;2.70;;;21.60;70.50;;;;;;6338511;22;20003;-80
2023/05/22 05:53:35;;;;;;;4.38;3.47;;;21.70;70.60;;;;;;6340322;22;20006;-82
2023/05/22 05:56:02;;;;;;;6.38;3.03;;;21.70;70.50;;;;;;6313450;22;19999;-82
2023/05/22 05:58:28;;;;;;;4.85;3.50;;;21.80;70.60;;;;;;6339804;22;19999;-83
2023/05/22 06:00:54;;;;;;;4.70;3.03;;;21.80;70.60;;;;;;6340666;22;20074;-90
2023/05/22 06:03:19;;;;;;;6.90;3.50;;;21.80;70.40;;;;;;6312828;22;19999;-83
2023/05/22 06:05:46;;;;;;;4.05;2.78;;;21.90;70.50;;;;;;6313237;22;20425;-90
2023/05/22 06:08:12;;;;;;;5.75;2.90;;;22.00;70.60;;;;;;6313355;22;20002;-89
2023/05/22 06:10:38;;;;;;;5.13;2.90;;;22.10;70.80;;;;;;6314459;22;20003;-89
2023/05/22 06:13:04;;;;;;;5.82;2.97;;;22.10;70.80;;;;;;6313968;22;20009;-89
2023/05/22 06:15:30;;;;;;;5.13;3.28;;;22.10;70.30;;;;;;6340810;22;20078;-83
2023/05/22 06:17:56;;;;;;;5.65;3.10;;;22.20;70.20;;;;;;6340670;22;20002;-83
2023/05/22 06:20:23;;;;;;;5.53;3.58;;;22.20;70.30;;;;;;6341148;22;20129;-83
2023/05/22 06:22:50;;;;;;;4.72;3.13;;;22.30;70.40;;;;;;6341552;22;20023;-83
2023/05/22 06:25:16;;;;;;;5.57;3.25;;;22.30;70.50;;;;;;6340926;22;20009;-83
2023/05/22 06:27:41;;;;;;;3.95;3.17;;;22.30;69.90;;;;;;6312154;22;20402;-83
2023/05/22 06:30:08;;;;;;;3.00;2.70;;;22.40;70.00;;;;;;6340468;22;20009;-83
2023/05/22 06:32:33;;;;;;;5.35;3.58;;;22.50;69.90;;;;;;6340517;22;20463;-83
2023/05/22 06:34:59;;;;;;;4.53;3.15;;;22.50;69.60;;;;;;6312438;22;20003;-83
2023/05/22 06:37:25;;;;;;;6.88;3.70;;;22.60;69.50;;;;;;6312238;22;20002;-82
2023/05/22 06:39:50;;;;;;;3.53;2.83;;;22.60;69.00;;;;;;6340615;22;19999;-83
2023/05/22 06:42:16;;;;;;;3.47;3.17;;;22.70;68.80;;;;;;6313060;22;20006;-83
2023/05/22 06:44:42;;;;;;;4.68;2.83;;;22.80;68.80;;;;;;6340981;22;20448;-83
2023/05/22 06:47:08;;;;;;;6.00;3.10;;;22.80;68.50;;;;;;6340892;22;20006;-83
2023/05/22 06:49:33;;;;;;;4.57;2.90;;;22.90;68.40;;;;;;6340942;22;19999;-83
2023/05/22 06:51:59;;;;;;;4.75;3.03;;;23.00;67.70;;;;;;6340749;22;20389;-83
2023/05/22 06:54:27;;;;;;;5.75;3.75;;;23.00;67.60;;;;;;6312395;22;20014;-83
2023/05/22 06:56:54;;;;;;;6.25;4.07;;;23.10;67.90;;;;;;6340202;22;20034;-83
2023/05/22 06:59:20;;;;;;;5.15;3.60;;;23.20;67.20;;;;;;6340555;22;19999;-83
2023/05/22 07:01:45;;;;;;;4.43;3.45;;;23.30;67.30;;;;;;6340568;22;20304;-83
2023/05/22 07:04:12;;;;;;;6.63;3.38;;;23.30;67.20;;;;;;6340772;22;20022;-84
2023/05/22 07:06:40;;;;;;;4.97;3.17;;;23.40;66.90;;;;;;6340443;22;20076;-83
2023/05/22 07:09:07;;;;;;;6.00;4.00;;;23.50;66.80;;;;;;6340096;22;19999;-89
2023/05/22 07:11:34;;;;;;;3.47;2.78;;;23.50;66.40;;;;;;6340321;22;20005;-89
2023/05/22 07:14:00;;;;;;;6.20;3.13;;;23.60;66.50;;;;;;6340382;22;20006;-89
2023/05/22 07:16:26;;;;;;;4.40;3.03;;;23.70;66.40;;;;;;6341019;22;20433;-89
2023/05/22 07:18:52;;;;;;;4.05;3.08;;;23.70;66.50;;;;;;6341620;22;20020;-89
2023/05/22 07:21:17;;;;;;;5.13;3.60;;;23.80;66.30;;;;;;6314038;22;19998;-89
2023/05/22 07:23:43;;;;;;;5.15;3.10;;;23.90;66.50;;;;;;6340557;22;20417;-89
2023/05/22 07:26:09;;;;;;;6.22;3.90;;;24.00;66.10;;;;;;6339497;22;20333;-89
2023/05/22 07:28:34;;;;;;;4.93;3.47;;;24.10;64.60;;;;;;6339941;22;20444;-89
2023/05/22 07:31:00;;;;;;;4.15;2.90;;;24.10;64.70;;;;;;6340056;22;20006;-90
2023/05/22 07:33:26;;;;;;;5.70;3.65;;;24.20;64.20;;;;;;6339808;22;20081;-90
2023/05/22 07:35:52;;;;;;;9.02;3.80;;;24.20;64.40;;;;;;6339273;22;20003;-89
2023/05/22 07:38:17;;;;;;;3.72;3.22;;;24.30;64.30;;;;;;6339858;22;19999;-89
2023/05/22 07:40:43;;;;;;;5.30;3.50;;;24.40;64.70;;;;;;6341242;22;19999;-90
2023/05/22 07:43:09;;;;;;;10.82;4.80;;;24.50;64.60;;;;;;6340387;22;20010;-89
2023/05/22 07:45:35;;;;;;;4.90;3.33;;;24.50;63.90;;;;;;6341294;22;19995;-90
2023/05/22 07:48:02;;;;;;;4.65;3.63;;;24.60;64.40;;;;;;6341131;22;20003;-90
2023/05/22 07:50:29;;;;;;;4.28;3.28;;;24.70;64.00;;;;;;6340767;22;19995;-91
2023/05/22 07:52:55;;;;;;;9.30;3.60;;;24.80;64.00;;;;;;6338560;22;20026;-88
2023/05/22 07:55:21;;;;;;;6.78;3.90;;;24.80;63.70;;;;;;6339007;22;19999;-91
2023/05/22 07:57:47;;;;;;;4.00;3.17;;;24.90;63.50;;;;;;6339380;22;20003;-88
2023/05/22 08:00:13;;;;;;;5.13;3.40;;;25.00;63.40;;;;;;6339969;22;20409;-88
2023/05/22 08:02:42;;;;;;;4.47;3.13;;;25.10;63.60;;;;;;6339644;22;20458;-89
2023/05/22 08:05:08;;;;;;;3.55;2.75;;;25.10;63.30;;;;;;6339002;22;19999;-89
2023/05/22 08:07:35;;;;;;;5.32;2.88;;;25.20;62.80;;;;;;6339200;22;19999;-88
2023/05/22 08:10:04;;;;;;;6.78;3.22;;;25.30;62.20;;;;;;6340218;22;19999;-89
2023/05/22 08:12:29;;;;;;;4.35;3.55;;;25.30;62.10;;;;;;6339891;22;20383;-87
2023/05/22 08:14:55;;;;;;;4.28;3.70;;;25.30;62.20;;;;;;6340349;22;19995;-88
2023/05/22 08:17:21;;;;;;;8.85;4.15;;;25.40;62.50;;;;;;6312357;22;20053;-89
2023/05/22 08:19:46;;;;;;;6.53;3.83;;;25.50;62.30;;;;;;6340595;22;20003;-88
2023/05/22 08:22:12;;;;;;;3.95;3.50;;;25.50;62.40;;;;;;6341427;22;20392;-87
2023/05/22 08:24:38;;;;;;;4.85;3.28;;;25.50;62.50;;;;;;6339887;22;20439;-87
2023/05/22 08:27:03;;;;;;;13.38;4.60;;;25.60;62.70;;;;;;6339640;22;20412;-88
2023/05/22 08:29:29;;;;;;;6.43;4.18;;;25.60;61.50;;;;;;6339392;22;20006;-87
2023/05/22 08:31:56;;;;;;;4.32;3.15;;;25.70;62.00;;;;;;6340022;22;19999;-87
2023/05/22 08:34:27;;;;;;;10.52;4.32;;;25.70;62.50;;;;;;6339792;22;20420;-87
2023/05/22 08:36:52;;;;;;;7.03;4.60;;;25.80;62.00;;;;;;6338614;22;20066;-87
2023/05/22 08:39:18;;;;;;;7.32;4.30;;;25.90;62.20;;;;;;6338768;22;20026;-86
2023/05/22 08:41:44;;;;;;;6.25;3.20;;;25.90;61.70;;;;;;6338469;22;19999;-87
2023/05/22 08:44:12;;;;;;;11.13;4.85;;;26.00;61.80;;;;;;6338557;22;20404;-87
2023/05/22 08:46:40;;;;;;;6.28;3.97;;;26.00;60.30;;;;;;6310200;22;20011;-89
2023/05/22 08:49:10;;;;;;;7.03;4.20;;;26.10;60.00;;;;;;6338680;22;20002;-88
2023/05/22 08:51:41;;;;;;;6.53;5.10;;;26.10;60.00;;;;;;6339166;22;20010;-89
2023/05/22 08:54:08;;;;;;;6.00;3.83;;;26.20;58.70;;;;;;6339189;22;20306;-89
2023/05/22 08:56:34;;;;;;;6.57;4.68;;;26.20;60.20;;;;;;6339485;22;20003;-89
2023/05/22 08:59:02;;;;;;;6.82;4.07;;;26.30;59.40;;;;;;6340171;22;20085;-88
2023/05/22 09:01:29;;;;;;;5.55;3.65;;;26.40;59.20;;;;;;6340072;22;19995;-89
2023/05/22 09:04:03;;;;;;;8.23;4.45;;;26.50;57.90;;;;;;6339719;22;20003;-88
2023/05/22 09:06:30;;;;;;;4.70;3.47;;;26.50;56.20;;;;;;6339593;22;20000;-88
2023/05/22 09:08:56;;;;;;;6.43;4.15;;;26.50;58.10;;;;;;6339752;22;20021;-89
2023/05/22 09:11:22;;;;;;;7.18;3.70;;;26.60;57.20;;;;;;6338680;22;20325;-88
2023/05/22 09:13:50;;;;;;;6.00;3.40;;;26.70;58.30;;;;;;6338801;22;19999;-88
2023/05/22 09:16:16;;;;;;;6.07;4.47;;;26.80;58.50;;;;;;6338105;22;20440;-82
2023/05/22 09:18:42;;;;;;;5.93;3.65;;;26.80;57.50;;;;;;6339626;22;19999;-82
2023/05/22 09:21:09;;;;;;;5.45;3.95;;;26.90;58.30;;;;;;6338542;22;19999;-86
2023/05/22 09:23:35;;;;;;;5.93;4.13;;;27.00;58.00;;;;;;6312625;22;20332;-82
2023/05/22 09:26:02;;;;;;;4.53;3.60;;;27.00;57.50;;;;;;6338556;22;20109;-82
2023/05/22 09:28:37;;;;;;;6.40;3.75;;;27.10;57.30;;;;;;6339713;22;20011;-89
2023/05/22 09:31:03;;;;;;;7.50;4.32;;;27.10;57.00;;;;;;6339893;22;20006;-82
2023/05/22 09:33:30;;;;;;;4.93;3.78;;;27.20;57.30;;;;;;6339899;22;20072;-82
2023/05/22 09:35:57;;;;;;;4.43;3.80;;;27.30;57.80;;;;;;6340618;22;20049;-82
2023/05/22 09:38:27;;;;;;;6.05;3.88;;;27.30;57.60;;;;;;6340362;22;19995;-82
2023/05/22 09:40:55;;;;;;;;;;;27.50;56.60;;;;;;6340382;22;19995;-82
2023/05/22 09:43:24;;;;;;;5.22;3.95;;;27.50;56.60;;;;;;6340174;22;19905;-82
2023/05/22 09:45:56;;;;;;;6.03;3.70;;;27.50;55.50;;;;;;6340078;22;19999;-82
2023/05/22 09:48:22;;;;;;;5.00;3.53;;;27.60;55.70;;;;;;6340444;22;20302;-91
2023/05/22 09:50:52;;;;;;;7.78;4.38;;;27.70;55.70;;;;;;6339235;22;20074;-91
2023/05/22 09:53:19;;;;;;;7.78;4.03;;;27.70;53.90;;;;;;6337237;22;20022;-84
2023/05/22 09:55:49;;;;;;;4.38;3.30;;;27.80;54.20;;;;;;6339367;22;20451;-83
2023/05/22 09:58:18;;;;;;;5.57;3.85;;;27.90;55.00;;;;;;6339279;22;20006;-83
2023/05/22 10:00:44;;;;;;;5.22;3.97;;;28.00;54.80;;;;;;6339362;22;19999;-83
2023/05/22 10:03:11;;;;;;;4.72;3.67;;;28.10;52.60;;;;;;6339290;22;20037;-83
2023/05/22 10:05:39;;;;;;;6.85;3.60;;;28.10;53.90;;;;;;6339320;22;20007;-91
2023/05/22 10:08:12;;;;;;;6.18;3.72;;;28.20;54.40;;;;;;6338989;22;20003;-92
2023/05/22 10:10:41;;;;;;;3.88;3.42;;;28.30;53.50;;;;;;6339772;22;20324;-91
2023/05/22 10:13:07;;;;;;;4.28;3.38;;;28.30;52.70;;;;;;6339936;22;20411;-90
2023/05/22 10:15:34;;;;;;;5.28;3.90;;;28.40;53.10;;;;;;6339364;22;20439;-91
2023/05/22 10:18:00;;;;;;;5.00;3.40;;;28.50;53.70;;;;;;6339158;22;20379;-92
2023/05/22 10:20:28;;;;;;;5.63;4.03;;;28.60;54.30;;;;;;6339499;22;20328;-91
2023/05/22 10:22:54;;;;;;;5.65;3.85;;;28.70;54.00;;;;;;6339258;22;19994;-91
2023/05/22 10:25:21;;;;;;;7.00;3.80;;;28.80;53.30;;;;;;6339371;22;20070;-91
2023/05/22 10:27:48;;;;;;;6.75;4.00;;;28.90;53.10;;;;;;6338520;22;20049;-92
2023/05/22 10:30:23;;;;;;;5.18;3.78;;;28.90;53.00;;;;;;6336208;22;20022;-92
2023/05/22 10:32:55;;;;;;;4.22;3.08;;;29.00;49.80;;;;;;6339834;22;20328;-91
2023/05/22 10:35:35;;;;;;;4.55;3.10;;;29.10;50.70;;;;;;6339284;22;20006;-91
2023/05/22 10:38:38;;;;;;;5.55;3.53;;;29.20;51.50;;;;;;6338762;22;20002;-91
2023/05/22 10:41:05;;;;;;;4.90;3.28;;;29.30;51.70;;;;;;6332554;22;20056;-91
2023/05/22 10:43:31;;;;;;;6.45;3.53;;;29.40;51.70;;;;;;6338317;22;20035;-91
2023/05/22 10:46:04;;;;;;;6.05;3.75;;;29.50;52.00;;;;;;6338863;22;20006;-92
2023/05/22 10:48:40;;;;;;;7.13;4.03;;;29.50;51.40;;;;;;6339396;22;20002;-92
2023/05/22 10:51:08;;;;;;;4.18;3.50;;;29.60;51.00;;;;;;6340304;22;20056;-91
2023/05/22 10:53:35;;;;;;;5.45;3.90;;;29.70;51.10;;;;;;6340197;22;20002;-91
2023/05/22 10:56:12;;;;;;;10.15;4.38;;;29.80;50.10;;;;;;6340356;22;20390;-91
2023/05/22 10:58:38;;;;;;;10.00;4.38;;;29.80;49.70;;;;;;6340179;22;19995;-93
2023/05/22 11:01:14;;;;;;;5.47;3.58;;;29.80;49.50;;;;;;6340287;22;20132;-93
2023/05/22 11:04:03;;;;;;;6.68;4.03;;;30.00;49.70;;;;;;6340031;22;19998;-92
2023/05/22 11:06:41;;;;;;;7.95;4.10;;;30.10;50.30;;;;;;6324554;22;20042;-92
2023/05/22 11:09:32;;;;;;;5.80;4.13;;;30.20;49.10;;;;;;6340460;22;20073;-92
2023/05/22 11:12:21;;;;;;;7.00;3.67;;;30.30;48.60;;;;;;6343739;22;20006;-91
2023/05/22 11:14:48;;;;;;;4.57;3.30;;;30.40;48.00;;;;;;6342140;22;20029;-92
2023/05/22 11:17:22;;;;;;;8.63;3.80;;;30.60;49.30;;;;;;6341648;22;20074;-92
2023/05/22 11:20:04;;;;;;;5.18;3.80;;;30.70;48.40;;;;;;6342063;22;19995;-92
2023/05/22 11:22:41;;;;;;;6.82;3.78;;;30.90;47.50;;;;;;6312763;22;20003;-92
2023/05/22 11:25:15;;;;;;;6.13;3.92;;;31.00;48.20;;;;;;6337282;22;20441;-92
2023/05/22 11:27:41;;;;;;;6.70;3.55;;;31.20;48.40;;;;;;6337110;22;20420;-92
2023/05/22 11:30:08;;;;;;;4.65;3.85;;;31.50;47.50;;;;;;6338525;22;20014;-91
2023/05/22 11:32:38;;;;;;;5.13;3.80;;;31.70;47.00;;;;;;6332454;22;19999;-93
2023/05/22 11:35:06;;;;;;;8.00;4.53;;;32.00;46.20;;;;;;6334327;22;20085;-84
2023/05/22 11:37:33;;;;;;;5.20;4.05;;;32.30;46.30;;;;;;6333757;22;20010;-84
2023/05/22 11:40:04;;;;;;;5.70;3.47;;;32.50;45.40;;;;;;6305813;22;20093;-84
2023/05/22 11:42:30;;;;;;;6.60;4.15;;;32.70;45.70;;;;;;6334677;22;20739;-84
2023/05/22 11:44:56;;;;;;;6.80;4.20;;;33.00;45.30;;;;;;6334592;22;20037;-84
2023/05/22 11:47:23;;;;;;;4.60;3.55;;;33.20;43.10;;;;;;6333305;22;20337;-84
2023/05/22 11:49:50;;;;;;;6.10;3.92;;;33.40;44.40;;;;;;6305544;22;20003;-84
2023/05/22 11:52:16;;;;;;;5.60;3.33;;;33.60;44.00;;;;;;6333722;22;20318;-84
2023/05/22 11:54:48;;;;;;;6.32;3.85;;;33.80;44.20;;;;;;6333435;22;20002;-84
2023/05/22 11:57:14;;;;;;;5.07;3.80;;;34.00;43.50;;;;;;6306509;22;20042;-84
2023/05/22 11:59:46;;;;;;;8.07;4.35;;;34.00;43.60;;;;;;6334596;22;19999;-84
2023/05/22 12:02:13;;;;;;;4.50;3.92;;;34.20;42.40;;;;;;6335366;22;20006;-84
2023/05/22 12:04:39;;;;;;;5.53;3.78;;;34.30;42.70;;;;;;6334642;22;20060;-84
2023/05/22 12:07:05;;;;;;;7.72;4.20;;;34.40;42.00;;;;;;6334683;22;20007;-84
2023/05/22 12:09:31;;;;;;;3.92;3.22;;;34.40;41.60;;;;;;6334471;22;20007;-84
2023/05/22 12:11:57;;;;;;;5.35;3.30;;;34.50;41.80;;;;;;6305275;22;20476;-84
2023/05/22 12:14:32;;;;;;;5.93;3.45;;;34.60;42.00;;;;;;6333008;22;20014;-84
2023/05/22 12:16:58;;;;;;;5.22;3.97;;;34.70;41.40;;;;;;6333817;22;19994;-84
2023/05/22 12:19:25;;;;;;;5.68;3.40;;;34.80;40.20;;;;;;6335496;22;19999;-84
2023/05/22 12:21:52;;;;;;;4.20;3.63;;;34.90;40.30;;;;;;6336074;22;19995;-84
2023/05/22 12:24:22;;;;;;;5.72;3.20;;;34.90;40.70;;;;;;6334314;22;20365;-84
2023/05/22 12:26:55;;;;;;;6.70;3.53;;;34.90;40.40;;;;;;6335633;22;20003;-84
2023/05/22 12:29:22;;;;;;;10.20;4.22;;;35.00;40.40;;;;;;6258674;22;1158339;-84
2023/05/22 12:31:47;;;;;;;9.90;4.00;;;35.10;40.50;;;;;;6338744;22;20041;-85
2023/05/22 12:34:15;;;;;;;5.57;3.20;;;35.20;39.30;;;;;;6339139;22;20003;-85
2023/05/22 12:36:42;;;;;;;8.35;3.40;;;35.20;39.90;;;;;;6339143;22;19995;-85
2023/05/22 12:39:09;;;;;;;3.50;2.90;;;35.40;39.60;;;;;;6339571;22;19999;-92
2023/05/22 12:41:38;;;;;;;3.45;3.05;;;35.50;39.50;;;;;;6339639;22;20302;-92
2023/05/22 12:44:04;;;;;;;5.50;3.20;;;35.50;39.40;;;;;;6340485;22;20003;-92
2023/05/22 12:46:30;;;;;;;5.65;3.55;;;35.50;38.50;;;;;;6341262;22;20005;-90
2023/05/22 12:48:57;;;;;;;3.55;3.25;;;35.50;39.20;;;;;;6343800;22;20002;-91
2023/05/22 12:51:25;;;;;;;5.13;3.33;;;35.40;38.60;;;;;;6344582;22;20448;-92